createdAt,value
2019-03-10T00:00:04.893Z,938.7
2019-03-10T00:01:05.364Z,938.7
2019-03-10T00:02:05.842Z,938.77
2019-03-10T00:03:06.656Z,938.75
2019-03-10T00:04:06.846Z,938.8
2019-03-10T00:05:07.155Z,938.83
2019-03-10T00:06:07.358Z,938.8
2019-03-10T00:07:08.112Z,938.78
2019-03-10T00:08:09.414Z,938.76
2019-03-10T00:09:10.165Z,938.74
2019-03-10T00:10:10.915Z,938.75
2019-03-10T00:11:11.947Z,938.76
2019-03-10T00:12:13.258Z,938.79
2019-03-10T00:13:14.010Z,938.84
2019-03-10T00:14:14.966Z,938.81
2019-03-10T00:15:15.442Z,938.76
2019-03-10T00:16:16.205Z,938.75
2019-03-10T00:17:16.406Z,938.78
2019-03-10T00:18:16.994Z,938.76
2019-03-10T00:19:17.468Z,938.78
2019-03-10T00:20:18.283Z,938.82
2019-03-10T00:21:18.754Z,938.83
2019-03-10T00:22:19.241Z,938.73
2019-03-10T00:23:20.270Z,938.74
2019-03-10T00:24:21.238Z,938.89
2019-03-10T00:25:21.734Z,938.83
2019-03-10T00:26:22.481Z,938.89
2019-03-10T00:27:23.000Z,938.84
2019-03-10T00:28:23.756Z,938.8
2019-03-10T00:29:24.785Z,938.84
2019-03-10T00:30:25.264Z,938.84
2019-03-10T00:31:26.043Z,938.81
2019-03-10T00:32:26.517Z,938.82
2019-03-10T00:33:26.991Z,938.8
2019-03-10T00:34:28.205Z,938.8
2019-03-10T00:35:28.955Z,938.84
2019-03-10T00:36:29.444Z,938.73
2019-03-10T00:37:30.198Z,938.63
2019-03-10T00:38:31.505Z,938.72
2019-03-10T00:39:31.702Z,938.7
2019-03-10T00:40:32.237Z,938.67
2019-03-10T00:41:32.432Z,938.64
2019-03-10T00:42:32.905Z,938.54
2019-03-10T00:43:33.649Z,938.54
2019-03-10T00:44:33.909Z,938.5
2019-03-10T00:45:34.103Z,938.5
2019-03-10T00:46:34.856Z,938.47
2019-03-10T00:47:35.331Z,938.36
2019-03-10T00:48:35.539Z,938.43
2019-03-10T00:49:35.734Z,938.4
2019-03-10T00:50:36.544Z,938.4
2019-03-10T00:51:36.855Z,938.39
2019-03-10T00:52:37.604Z,938.35
2019-03-10T00:53:37.797Z,938.29
2019-03-10T00:54:38.002Z,938.22
2019-03-10T00:55:38.596Z,938.25
2019-03-10T00:56:39.067Z,938.25
2019-03-10T00:57:39.815Z,938.2
2019-03-10T00:58:40.687Z,938.28
2019-03-10T00:59:41.159Z,938.29
2019-03-10T01:00:41.642Z,938.21
2019-03-10T01:01:42.389Z,938.2
2019-03-10T01:02:42.586Z,938.2
2019-03-10T01:03:43.625Z,938.16
2019-03-10T01:04:44.559Z,938.21
2019-03-10T01:05:45.312Z,938.19
2019-03-10T01:06:46.088Z,938.19
2019-03-10T01:07:47.120Z,938.16
2019-03-10T01:08:47.865Z,938.11
2019-03-10T01:09:48.893Z,938.16
2019-03-10T01:10:49.926Z,938.12
2019-03-10T01:11:50.691Z,938.05
2019-03-10T01:12:51.735Z,938.05
2019-03-10T01:13:53.046Z,938.02
2019-03-10T01:14:53.707Z,938.06
2019-03-10T01:15:54.179Z,938.03
2019-03-10T01:16:55.206Z,938
2019-03-10T01:17:55.404Z,937.98
2019-03-10T01:18:55.881Z,937.94
2019-03-10T01:19:57.198Z,937.93
2019-03-10T01:20:57.392Z,937.87
2019-03-10T01:21:57.866Z,937.89
2019-03-10T01:22:58.899Z,937.9
2019-03-10T01:23:59.094Z,937.86
2019-03-10T01:25:00.027Z,937.81
2019-03-10T01:26:00.932Z,937.79
2019-03-10T01:27:01.130Z,937.81
2019-03-10T01:28:01.887Z,937.79
2019-03-10T01:29:02.710Z,937.78
2019-03-10T01:30:04.054Z,937.77
2019-03-10T01:31:04.844Z,937.76
2019-03-10T01:32:05.319Z,937.72
2019-03-10T01:33:06.071Z,937.69
2019-03-10T01:34:06.546Z,937.69
2019-03-10T01:35:07.317Z,937.7
2019-03-10T01:36:08.117Z,937.61
2019-03-10T01:37:08.590Z,937.45
2019-03-10T01:38:09.348Z,937.5
2019-03-10T01:39:09.544Z,937.48
2019-03-10T01:40:10.292Z,937.42
2019-03-10T01:41:10.509Z,937.34
2019-03-10T01:42:10.760Z,937.34
2019-03-10T01:43:11.237Z,937.33
2019-03-10T01:44:12.033Z,937.26
2019-03-10T01:45:12.219Z,937.29
2019-03-10T01:46:12.977Z,937.21
2019-03-10T01:47:13.731Z,937.21
2019-03-10T01:48:13.938Z,937.17
2019-03-10T01:49:14.983Z,937.2
2019-03-10T01:50:15.464Z,937.14
2019-03-10T01:51:15.958Z,937.17
2019-03-10T01:52:17.023Z,937.16
2019-03-10T01:53:26.087Z,937.14
2019-03-10T01:53:27.836Z,937.12
2019-03-10T01:54:28.780Z,937.13
2019-03-10T01:55:28.981Z,937.09
2019-03-10T01:56:29.748Z,937.13
2019-03-10T01:57:29.994Z,937.05
2019-03-10T01:58:30.192Z,937.09
2019-03-10T01:59:31.505Z,937.06
2019-03-10T02:00:31.982Z,937.02
2019-03-10T02:01:33.014Z,936.98
2019-03-10T02:02:33.545Z,936.94
2019-03-10T02:03:34.028Z,936.96
2019-03-10T02:04:34.993Z,936.93
2019-03-10T02:05:35.190Z,936.97
2019-03-10T02:06:35.390Z,937.02
2019-03-10T02:07:35.868Z,937.05
2019-03-10T02:08:36.926Z,936.95
2019-03-10T02:09:37.399Z,936.84
2019-03-10T02:10:38.433Z,936.84
2019-03-10T02:11:38.953Z,936.9
2019-03-10T02:12:39.433Z,936.85
2019-03-10T02:13:40.186Z,936.9
2019-03-10T02:14:41.107Z,936.84
2019-03-10T02:15:41.588Z,936.85
2019-03-10T02:16:42.341Z,936.84
2019-03-10T02:17:42.813Z,936.82
2019-03-10T02:18:43.574Z,936.82
2019-03-10T02:19:44.605Z,936.83
2019-03-10T02:20:45.752Z,936.76
2019-03-10T02:21:46.573Z,936.77
2019-03-10T02:22:47.323Z,936.82
2019-03-10T02:23:48.133Z,936.79
2019-03-10T02:24:49.138Z,936.9
2019-03-10T02:25:49.617Z,936.91
2019-03-10T02:26:49.972Z,936.9
2019-03-10T02:27:50.726Z,936.87
2019-03-10T02:28:51.204Z,936.98
2019-03-10T02:29:52.252Z,937
2019-03-10T02:30:53.008Z,936.98
2019-03-10T02:31:54.050Z,936.69
2019-03-10T02:32:54.661Z,936.78
2019-03-10T02:33:55.259Z,936.64
2019-03-10T02:34:56.458Z,936.78
2019-03-10T02:35:57.533Z,936.75
2019-03-10T02:36:58.145Z,936.71
2019-03-10T02:37:59.462Z,936.7
2019-03-10T02:39:00.118Z,936.69
2019-03-10T02:40:00.673Z,936.65
2019-03-10T02:41:01.490Z,936.77
2019-03-10T02:42:01.887Z,936.72
2019-03-10T02:43:03.055Z,936.79
2019-03-10T02:44:03.988Z,936.78
2019-03-10T02:45:04.185Z,936.66
2019-03-10T02:46:04.626Z,936.71
2019-03-10T02:47:04.957Z,936.76
2019-03-10T02:48:06.065Z,936.65
2019-03-10T02:49:06.684Z,936.66
2019-03-10T02:50:07.753Z,936.66
2019-03-10T02:51:08.447Z,936.6
2019-03-10T02:52:09.582Z,936.54
2019-03-10T02:53:10.950Z,936.63
2019-03-10T02:54:11.278Z,936.62
2019-03-10T02:55:12.673Z,936.59
2019-03-10T02:56:13.296Z,936.55
2019-03-10T02:57:13.961Z,936.52
2019-03-10T02:58:14.552Z,936.46
2019-03-10T02:59:15.434Z,936.43
2019-03-10T03:00:15.942Z,936.4
2019-03-10T03:01:16.860Z,936.38
2019-03-10T03:02:17.709Z,936.39
2019-03-10T03:03:18.775Z,936.32
2019-03-10T03:04:19.863Z,936.31
2019-03-10T03:05:20.524Z,936.24
2019-03-10T03:06:21.597Z,936.28
2019-03-10T03:07:22.631Z,936.2
2019-03-10T03:08:23.220Z,936.23
2019-03-10T03:09:23.833Z,936.16
2019-03-10T03:10:24.831Z,936.19
2019-03-10T03:11:25.453Z,936.15
2019-03-10T03:12:25.806Z,936.05
2019-03-10T03:13:26.796Z,936.07
2019-03-10T03:14:27.552Z,936.04
2019-03-10T03:15:28.070Z,935.97
2019-03-10T03:16:28.937Z,935.96
2019-03-10T03:17:29.295Z,935.99
2019-03-10T03:18:30.180Z,935.94
2019-03-10T03:19:31.306Z,935.91
2019-03-10T03:20:32.442Z,935.84
2019-03-10T03:21:43.925Z,935.81
2019-03-10T03:22:44.512Z,935.78
2019-03-10T03:23:45.447Z,935.75
2019-03-10T03:24:45.814Z,935.76
2019-03-10T03:25:47.253Z,935.72
2019-03-10T03:26:48.009Z,935.72
2019-03-10T03:27:48.486Z,935.67
2019-03-10T03:28:48.791Z,935.62
2019-03-10T03:29:49.383Z,935.61
2019-03-10T03:30:50.441Z,935.54
2019-03-10T03:31:51.182Z,935.54
2019-03-10T03:32:52.448Z,935.57
2019-03-10T03:33:53.158Z,935.56
2019-03-10T03:34:54.356Z,935.58
2019-03-10T03:35:54.652Z,935.51
2019-03-10T03:36:55.273Z,935.52
2019-03-10T03:37:55.594Z,935.45
2019-03-10T03:38:56.619Z,935.5
2019-03-10T03:39:57.501Z,935.45
2019-03-10T03:40:58.209Z,935.43
2019-03-10T03:41:58.559Z,935.41
2019-03-10T03:42:59.834Z,935.38
2019-03-10T03:44:00.205Z,935.32
2019-03-10T03:45:01.021Z,935.26
2019-03-10T03:46:01.487Z,935.2
2019-03-10T03:47:01.897Z,935.16
2019-03-10T03:48:02.545Z,935.13
2019-03-10T03:49:03.604Z,935.08
2019-03-10T03:50:04.932Z,935.07
2019-03-10T03:51:05.277Z,935.03
2019-03-10T03:52:05.916Z,934.93
2019-03-10T03:53:06.395Z,934.96
2019-03-10T03:54:07.427Z,934.9
2019-03-10T03:55:07.744Z,934.93
2019-03-10T03:56:08.345Z,934.97
2019-03-10T03:57:08.866Z,934.99
2019-03-10T03:58:09.461Z,934.96
2019-03-10T03:59:10.807Z,934.93
2019-03-10T04:00:12.165Z,934.93
2019-03-10T04:01:13.114Z,935
2019-03-10T04:02:13.761Z,934.99
2019-03-10T04:03:14.299Z,935
2019-03-10T04:04:15.363Z,935.03
2019-03-10T04:05:16.501Z,935.07
2019-03-10T04:06:17.095Z,934.98
2019-03-10T04:07:17.974Z,934.98
2019-03-10T04:08:18.960Z,934.96
2019-03-10T04:09:19.633Z,934.87
2019-03-10T04:10:20.220Z,934.8
2019-03-10T04:11:20.814Z,934.8
2019-03-10T04:12:22.173Z,934.83
2019-03-10T04:13:22.838Z,934.89
2019-03-10T04:14:23.477Z,934.84
2019-03-10T04:15:24.894Z,934.81
2019-03-10T04:16:25.601Z,934.78
2019-03-10T04:17:26.403Z,934.74
2019-03-10T04:18:27.357Z,934.67
2019-03-10T04:19:28.217Z,934.69
2019-03-10T04:20:29.546Z,934.67
2019-03-10T04:21:30.306Z,934.61
2019-03-10T04:22:31.372Z,934.58
2019-03-10T04:23:32.151Z,934.57
2019-03-10T04:24:32.766Z,934.54
2019-03-10T04:25:33.080Z,934.51
2019-03-10T04:26:33.962Z,934.49
2019-03-10T04:27:34.567Z,934.4
2019-03-10T04:28:34.895Z,934.45
2019-03-10T04:29:35.216Z,934.44
2019-03-10T04:30:36.643Z,934.46
2019-03-10T04:31:37.401Z,934.41
2019-03-10T04:32:38.301Z,934.38
2019-03-10T04:33:39.073Z,934.36
2019-03-10T04:34:39.582Z,934.35
2019-03-10T04:35:40.458Z,934.37
2019-03-10T04:36:41.241Z,934.29
2019-03-10T04:37:42.000Z,934.23
2019-03-10T04:38:43.034Z,934.15
2019-03-10T04:39:43.510Z,934.14
2019-03-10T04:40:44.540Z,934.14
2019-03-10T04:41:45.014Z,934.1
2019-03-10T04:42:45.773Z,934.11
2019-03-10T04:43:46.424Z,934.1
2019-03-10T04:44:47.474Z,934.12
2019-03-10T04:45:47.951Z,934.14
2019-03-10T04:46:48.420Z,934.08
2019-03-10T04:47:49.179Z,934.11
2019-03-10T04:48:49.674Z,934.1
2019-03-10T04:49:49.986Z,934.04
2019-03-10T04:50:50.737Z,933.99
2019-03-10T04:51:51.508Z,934.02
2019-03-10T04:52:51.705Z,934
2019-03-10T04:53:52.543Z,933.97
2019-03-10T04:54:53.018Z,933.99
2019-03-10T04:55:53.488Z,934.02
2019-03-10T04:56:54.237Z,934.01
2019-03-10T04:57:54.712Z,933.95
2019-03-10T04:58:55.457Z,933.89
2019-03-10T04:59:55.678Z,933.82
2019-03-10T05:00:55.986Z,933.85
2019-03-10T05:01:56.324Z,933.9
2019-03-10T05:02:56.802Z,933.87
2019-03-10T05:03:57.782Z,933.86
2019-03-10T05:04:58.559Z,933.82
2019-03-10T05:05:59.225Z,933.79
2019-03-10T05:06:59.701Z,933.75
2019-03-10T05:08:00.176Z,933.73
2019-03-10T05:09:01.254Z,933.77
2019-03-10T05:10:01.732Z,933.79
2019-03-10T05:11:02.820Z,933.72
2019-03-10T05:12:03.854Z,933.68
2019-03-10T05:13:04.159Z,933.61
2019-03-10T05:14:04.470Z,933.6
2019-03-10T05:15:04.784Z,933.56
2019-03-10T05:16:05.817Z,933.58
2019-03-10T05:17:06.849Z,933.54
2019-03-10T05:18:07.355Z,933.5
2019-03-10T05:19:08.380Z,933.4
2019-03-10T05:20:09.126Z,933.42
2019-03-10T05:21:09.715Z,933.44
2019-03-10T05:22:10.185Z,933.37
2019-03-10T05:23:10.670Z,933.33
2019-03-10T05:24:11.641Z,933.31
2019-03-10T05:25:11.953Z,933.33
2019-03-10T05:26:13.022Z,933.28
2019-03-10T05:27:13.496Z,933.25
2019-03-10T05:28:14.529Z,933.26
2019-03-10T05:29:15.284Z,933.12
2019-03-10T05:30:15.517Z,933.08
2019-03-10T05:31:16.829Z,933.06
2019-03-10T05:32:17.319Z,933.05
2019-03-10T05:33:17.794Z,933.1
2019-03-10T05:34:18.292Z,933.02
2019-03-10T05:35:18.774Z,932.99
2019-03-10T05:36:18.969Z,932.95
2019-03-10T05:37:19.722Z,932.93
2019-03-10T05:38:20.194Z,932.96
2019-03-10T05:39:20.673Z,932.89
2019-03-10T05:40:21.416Z,932.89
2019-03-10T05:41:21.666Z,932.95
2019-03-10T05:42:21.975Z,932.99
2019-03-10T05:43:23.002Z,932.95
2019-03-10T05:44:23.975Z,932.87
2019-03-10T05:45:25.068Z,932.87
2019-03-10T05:46:25.656Z,932.84
2019-03-10T05:47:25.963Z,932.89
2019-03-10T05:48:27.000Z,932.87
2019-03-10T05:49:27.198Z,932.88
2019-03-10T05:50:28.246Z,932.82
2019-03-10T05:51:29.563Z,932.81
2019-03-10T05:52:30.387Z,932.81
2019-03-10T05:53:30.584Z,932.85
2019-03-10T05:54:30.788Z,932.88
2019-03-10T05:55:31.542Z,932.81
2019-03-10T05:56:32.025Z,932.8
2019-03-10T05:57:33.059Z,932.93
2019-03-10T05:58:35.683Z,932.86
2019-03-10T05:59:36.571Z,932.75
2019-03-10T06:00:43.518Z,932.82
2019-03-10T06:00:47.738Z,932.85
2019-03-10T06:01:49.005Z,932.89
2019-03-10T06:02:49.493Z,932.8
2019-03-10T06:03:49.810Z,932.84
2019-03-10T06:04:51.122Z,932.82
2019-03-10T06:05:51.316Z,932.85
2019-03-10T06:06:51.788Z,932.86
2019-03-10T06:07:52.540Z,932.86
2019-03-10T06:08:52.739Z,932.89
2019-03-10T06:09:53.215Z,932.96
2019-03-10T06:10:54.244Z,932.83
2019-03-10T06:11:54.602Z,932.81
2019-03-10T06:12:55.357Z,932.8
2019-03-10T06:13:55.835Z,932.79
2019-03-10T06:14:56.596Z,932.75
2019-03-10T06:15:57.625Z,932.79
2019-03-10T06:16:58.395Z,932.83
2019-03-10T06:17:58.881Z,932.89
2019-03-10T06:18:59.932Z,932.85
2019-03-10T06:20:00.719Z,932.79
2019-03-10T06:21:01.076Z,932.82
2019-03-10T06:22:01.620Z,932.77
2019-03-10T06:23:01.820Z,932.84
2019-03-10T06:24:02.575Z,932.7
2019-03-10T06:25:03.175Z,932.8
2019-03-10T06:26:03.678Z,932.93
2019-03-10T06:27:04.217Z,932.98
2019-03-10T06:28:04.695Z,932.85
2019-03-10T06:29:05.726Z,932.61
2019-03-10T06:30:06.498Z,932.68
2019-03-10T06:31:07.251Z,932.8
2019-03-10T06:32:07.488Z,932.78
2019-03-10T06:33:08.248Z,932.78
2019-03-10T06:34:09.042Z,932.73
2019-03-10T06:35:09.352Z,932.71
2019-03-10T06:36:10.102Z,932.66
2019-03-10T06:37:10.864Z,932.65
2019-03-10T06:38:11.341Z,932.66
2019-03-10T06:39:12.097Z,932.62
2019-03-10T06:40:12.408Z,932.58
2019-03-10T06:41:13.442Z,932.75
2019-03-10T06:42:13.652Z,932.54
2019-03-10T06:43:14.462Z,932.62
2019-03-10T06:44:14.936Z,932.41
2019-03-10T06:45:15.983Z,932.42
2019-03-10T06:46:16.477Z,932.44
2019-03-10T06:47:16.959Z,932.19
2019-03-10T06:48:17.707Z,932.31
2019-03-10T06:49:18.318Z,932.36
2019-03-10T06:50:19.203Z,932.37
2019-03-10T06:51:19.688Z,932.36
2019-03-10T06:52:20.488Z,932.37
2019-03-10T06:53:20.971Z,932.23
2019-03-10T06:54:21.197Z,932.2
2019-03-10T06:55:21.686Z,932.28
2019-03-10T06:56:22.159Z,932.27
2019-03-10T06:57:22.911Z,932.14
2019-03-10T06:58:23.388Z,932.11
2019-03-10T06:59:23.696Z,931.99
2019-03-10T07:00:24.455Z,932.1
2019-03-10T07:01:25.267Z,932.17
2019-03-10T07:02:25.914Z,932.13
2019-03-10T07:03:26.668Z,932.09
2019-03-10T07:04:27.162Z,932.03
2019-03-10T07:05:28.214Z,932.18
2019-03-10T07:06:28.494Z,932.17
2019-03-10T07:07:28.700Z,932.12
2019-03-10T07:08:28.957Z,932.09
2019-03-10T07:09:29.989Z,931.97
2019-03-10T07:10:30.464Z,932.06
2019-03-10T07:11:30.956Z,932.06
2019-03-10T07:12:31.764Z,932.07
2019-03-10T07:13:32.808Z,932.01
2019-03-10T07:14:33.566Z,932.09
2019-03-10T07:15:34.047Z,932.09
2019-03-10T07:16:34.814Z,932
2019-03-10T07:17:35.572Z,931.93
2019-03-10T07:18:36.323Z,932
2019-03-10T07:19:37.090Z,931.97
2019-03-10T07:20:37.310Z,932.07
2019-03-10T07:21:38.345Z,932.11
2019-03-10T07:22:39.411Z,932.18
2019-03-10T07:23:40.444Z,932.11
2019-03-10T07:24:40.919Z,932.03
2019-03-10T07:25:41.680Z,932.02
2019-03-10T07:26:42.751Z,931.98
2019-03-10T07:27:43.509Z,931.95
2019-03-10T07:28:44.545Z,932
2019-03-10T07:29:45.020Z,932.07
2019-03-10T07:30:45.501Z,932.01
2019-03-10T07:31:46.807Z,931.93
2019-03-10T07:32:47.778Z,932
2019-03-10T07:33:48.538Z,932.12
2019-03-10T07:34:48.845Z,931.92
2019-03-10T07:35:49.436Z,932
2019-03-10T07:36:49.699Z,932.07
2019-03-10T07:37:50.185Z,931.99
2019-03-10T07:38:50.667Z,932.07
2019-03-10T07:39:51.281Z,931.95
2019-03-10T07:40:52.035Z,931.84
2019-03-10T07:41:52.795Z,931.88
2019-03-10T07:42:53.032Z,931.82
2019-03-10T07:43:54.090Z,931.97
2019-03-10T07:44:55.176Z,931.92
2019-03-10T07:45:55.935Z,931.95
2019-03-10T07:46:56.694Z,931.93
2019-03-10T07:47:57.173Z,931.99
2019-03-10T07:48:58.208Z,932.05
2019-03-10T07:49:58.688Z,931.8
2019-03-10T07:50:59.560Z,931.84
2019-03-10T07:52:00.053Z,931.86
2019-03-10T07:53:00.270Z,931.87
2019-03-10T07:54:01.086Z,931.88
2019-03-10T07:55:01.846Z,931.76
2019-03-10T07:56:02.321Z,931.87
2019-03-10T07:57:03.098Z,931.81
2019-03-10T07:58:03.868Z,931.86
2019-03-10T07:59:04.907Z,931.92
2019-03-10T08:00:06.028Z,931.97
2019-03-10T08:01:06.512Z,931.83
2019-03-10T08:02:07.001Z,931.97
2019-03-10T08:03:08.207Z,931.83
2019-03-10T08:04:08.693Z,931.9
2019-03-10T08:05:09.493Z,931.92
2019-03-10T08:06:10.249Z,931.78
2019-03-10T08:07:11.152Z,931.84
2019-03-10T08:08:11.911Z,931.72
2019-03-10T08:09:12.683Z,931.71
2019-03-10T08:10:13.051Z,931.75
2019-03-10T08:11:13.880Z,931.68
2019-03-10T08:12:14.961Z,931.74
2019-03-10T08:13:15.915Z,931.55
2019-03-10T08:14:16.676Z,931.67
2019-03-10T08:15:17.463Z,931.66
2019-03-10T08:16:17.966Z,931.72
2019-03-10T08:17:18.738Z,931.6
2019-03-10T08:18:19.006Z,931.6
2019-03-10T08:19:19.214Z,931.62
2019-03-10T08:20:20.527Z,931.68
2019-03-10T08:21:21.029Z,931.67
2019-03-10T08:22:21.792Z,931.65
2019-03-10T08:23:22.718Z,931.76
2019-03-10T08:24:23.478Z,931.75
2019-03-10T08:25:23.679Z,931.53
2019-03-10T08:26:24.766Z,931.63
2019-03-10T08:27:25.391Z,931.63
2019-03-10T08:28:26.147Z,931.56
2019-03-10T08:29:26.359Z,931.65
2019-03-10T08:30:26.954Z,931.67
2019-03-10T08:31:27.714Z,931.68
2019-03-10T08:32:28.638Z,931.69
2019-03-10T08:33:29.546Z,931.54
2019-03-10T08:34:29.753Z,931.61
2019-03-10T08:35:29.958Z,931.64
2019-03-10T08:36:30.560Z,931.38
2019-03-10T08:37:31.595Z,931.6
2019-03-10T08:38:32.077Z,931.56
2019-03-10T08:39:32.842Z,931.48
2019-03-10T08:40:33.047Z,931.39
2019-03-10T08:41:34.366Z,931.48
2019-03-10T08:42:34.581Z,931.47
2019-03-10T08:43:35.530Z,931.53
2019-03-10T08:44:36.288Z,931.42
2019-03-10T08:45:36.773Z,931.49
2019-03-10T08:46:37.248Z,931.6
2019-03-10T08:47:37.723Z,931.54
2019-03-10T08:48:38.493Z,931.78
2019-03-10T08:49:45.772Z,931.75
2019-03-10T08:49:49.322Z,931.69
2019-03-10T08:50:49.591Z,931.62
2019-03-10T08:51:50.075Z,931.47
2019-03-10T08:52:51.309Z,931.6
2019-03-10T08:53:52.149Z,931.61
2019-03-10T08:54:52.438Z,931.56
2019-03-10T08:55:53.229Z,931.42
2019-03-10T08:56:53.712Z,931.48
2019-03-10T08:57:55.600Z,931.59
2019-03-10T08:58:55.378Z,931.6
2019-03-10T08:59:55.861Z,931.68
2019-03-10T09:00:56.792Z,931.55
2019-03-10T09:01:57.270Z,931.35
2019-03-10T09:02:58.039Z,930.95
2019-03-10T09:03:58.536Z,932.08
2019-03-10T09:04:58.959Z,931.7
2019-03-10T09:05:59.327Z,931.54
2019-03-10T09:06:59.635Z,932.21
2019-03-10T09:08:00.707Z,932.11
2019-03-10T09:09:01.486Z,931.65
2019-03-10T09:10:02.555Z,931.56
2019-03-10T09:11:03.057Z,931.43
2019-03-10T09:12:04.370Z,931.65
2019-03-10T09:13:04.598Z,931.58
2019-03-10T09:14:05.080Z,931.77
2019-03-10T09:15:06.130Z,931.55
2019-03-10T09:16:06.463Z,931.56
2019-03-10T09:17:07.521Z,931.7
2019-03-10T09:18:07.838Z,931.52
2019-03-10T09:19:08.324Z,931.67
2019-03-10T09:20:09.364Z,931.45
2019-03-10T09:21:09.686Z,931.56
2019-03-10T09:22:09.907Z,931.67
2019-03-10T09:23:10.964Z,931.45
2019-03-10T09:24:11.729Z,931.53
2019-03-10T09:25:12.760Z,931.63
2019-03-10T09:26:13.312Z,931.5
2019-03-10T09:27:14.372Z,931.35
2019-03-10T09:28:14.586Z,931.56
2019-03-10T09:29:15.077Z,931.56
2019-03-10T09:30:15.557Z,931.59
2019-03-10T09:31:16.767Z,931.55
2019-03-10T09:32:16.965Z,931.58
2019-03-10T09:33:18.065Z,931.67
2019-03-10T09:34:18.844Z,931.42
2019-03-10T09:35:19.598Z,931.35
2019-03-10T09:36:20.642Z,931.59
2019-03-10T09:37:21.123Z,931.63
2019-03-10T09:38:21.370Z,931.58
2019-03-10T09:39:22.408Z,931.7
2019-03-10T09:40:23.456Z,931.74
2019-03-10T09:41:23.983Z,931.61
2019-03-10T09:42:25.023Z,931.52
2019-03-10T09:43:25.359Z,931.48
2019-03-10T09:44:26.424Z,931.56
2019-03-10T09:45:26.938Z,931.57
2019-03-10T09:46:28.112Z,931.66
2019-03-10T09:47:29.332Z,931.63
2019-03-10T09:48:30.403Z,931.41
2019-03-10T09:49:31.286Z,931.63
2019-03-10T09:50:31.491Z,931.71
2019-03-10T09:51:32.759Z,931.61
2019-03-10T09:52:35.303Z,931.66
2019-03-10T09:52:44.354Z,931.64
2019-03-10T09:53:44.336Z,931.62
2019-03-10T09:54:44.730Z,931.63
2019-03-10T09:55:44.936Z,931.57
2019-03-10T09:56:45.970Z,931.74
2019-03-10T09:57:47.008Z,931.69
2019-03-10T09:58:47.782Z,931.76
2019-03-10T09:59:48.561Z,931.8
2019-03-10T10:00:49.328Z,931.83
2019-03-10T10:01:51.864Z,931.79
2019-03-10T10:02:52.627Z,931.89
2019-03-10T10:03:53.723Z,931.77
2019-03-10T10:04:54.789Z,931.69
2019-03-10T10:05:55.561Z,931.69
2019-03-10T10:06:56.058Z,931.87
2019-03-10T10:07:57.100Z,931.98
2019-03-10T10:08:57.879Z,932.03
2019-03-10T10:09:58.662Z,931.92
2019-03-10T10:11:00.071Z,931.95
2019-03-10T10:12:00.824Z,932.12
2019-03-10T10:12:13.566Z,932.1
2019-03-10T10:13:11.777Z,932.06
2019-03-10T10:14:12.263Z,932.02
2019-03-10T10:15:13.025Z,932.02
2019-03-10T10:16:13.815Z,932.22
2019-03-10T10:17:14.570Z,932.21
2019-03-10T10:18:14.788Z,932.09
2019-03-10T10:19:15.896Z,932.21
2019-03-10T10:20:16.934Z,932.31
2019-03-10T10:21:17.745Z,932.09
2019-03-10T10:22:18.505Z,932.17
2019-03-10T10:23:19.150Z,932.15
2019-03-10T10:24:19.904Z,932.14
2019-03-10T10:25:20.114Z,932.14
2019-03-10T10:26:22.235Z,932.18
2019-03-10T10:26:31.207Z,932.15
2019-03-10T10:27:32.731Z,932.06
2019-03-10T10:28:33.757Z,932.11
2019-03-10T10:29:34.520Z,932.13
2019-03-10T10:30:35.562Z,932.17
2019-03-10T10:31:36.058Z,932.15
2019-03-10T10:32:36.541Z,932.07
2019-03-10T10:33:37.595Z,932.05
2019-03-10T10:34:38.399Z,931.88
2019-03-10T10:35:38.964Z,931.93
2019-03-10T10:36:39.450Z,931.99
2019-03-10T10:37:40.097Z,931.93
2019-03-10T10:38:40.854Z,931.95
2019-03-10T10:39:42.909Z,931.93
2019-03-10T10:39:52.045Z,931.82
2019-03-10T10:40:52.814Z,931.89
2019-03-10T10:41:53.302Z,931.88
2019-03-10T10:42:54.061Z,931.82
2019-03-10T10:43:55.101Z,931.82
2019-03-10T10:44:55.582Z,931.74
2019-03-10T10:45:56.069Z,931.68
2019-03-10T10:46:56.271Z,931.79
2019-03-10T10:47:56.776Z,931.65
2019-03-10T10:48:59.012Z,931.54
2019-03-10T10:49:08.086Z,931.5
2019-03-10T10:49:18.029Z,931.54
2019-03-10T10:50:19.017Z,931.38
2019-03-10T10:51:19.235Z,931.5
2019-03-10T10:52:19.752Z,931.53
2019-03-10T10:53:21.938Z,931.47
2019-03-10T10:54:23.053Z,931.45
2019-03-10T10:55:23.918Z,931.33
2019-03-10T10:56:25.672Z,931.24
2019-03-10T10:56:34.544Z,931.22
2019-03-10T10:57:35.420Z,931.42
2019-03-10T10:58:36.009Z,931.41
2019-03-10T10:59:37.337Z,931.43
2019-03-10T11:00:38.375Z,931.47
2019-03-10T11:01:38.863Z,931.38
2019-03-10T11:02:39.352Z,931.29
2019-03-10T11:03:40.709Z,931.11
2019-03-10T11:04:40.926Z,930.88
2019-03-10T11:05:41.965Z,931.13
2019-03-10T11:06:43.005Z,931.13
2019-03-10T11:07:43.980Z,930.88
2019-03-10T11:08:44.192Z,930.89
2019-03-10T11:09:44.678Z,930.97
2019-03-10T11:10:45.750Z,930.99
2019-03-10T11:11:46.519Z,930.81
2019-03-10T11:12:46.995Z,930.71
2019-03-10T11:13:47.478Z,930.69
2019-03-10T11:14:48.850Z,930.61
2019-03-10T11:15:49.608Z,930.65
2019-03-10T11:16:50.373Z,930.76
2019-03-10T11:17:50.574Z,930.67
2019-03-10T11:18:51.339Z,930.72
2019-03-10T11:19:52.098Z,930.71
2019-03-10T11:20:52.578Z,930.68
2019-03-10T11:21:53.865Z,930.71
2019-03-10T11:22:55.933Z,930.83
2019-03-10T11:23:56.790Z,930.84
2019-03-10T11:24:57.268Z,931.03
2019-03-10T11:25:58.317Z,930.94
2019-03-10T11:26:58.636Z,930.95
2019-03-10T11:27:59.590Z,930.83
2019-03-10T11:29:04.133Z,930.79
2019-03-10T11:30:04.216Z,930.88
2019-03-10T11:31:04.979Z,930.84
2019-03-10T11:32:06.020Z,930.73
2019-03-10T11:33:06.564Z,930.76
2019-03-10T11:34:07.446Z,930.5
2019-03-10T11:35:08.010Z,930.64
2019-03-10T11:36:08.778Z,930.56
2019-03-10T11:37:09.537Z,930.55
2019-03-10T11:38:10.489Z,930.55
2019-03-10T11:39:10.973Z,930.48
2019-03-10T11:40:11.253Z,930.49
2019-03-10T11:41:12.015Z,930.45
2019-03-10T11:42:12.794Z,930.52
2019-03-10T11:43:13.286Z,930.29
2019-03-10T11:44:14.053Z,930.38
2019-03-10T11:45:14.540Z,930.36
2019-03-10T11:46:15.308Z,930.27
2019-03-10T11:47:15.521Z,930.27
2019-03-10T11:48:16.730Z,930.41
2019-03-10T11:49:17.497Z,930.38
2019-03-10T11:50:18.288Z,930.31
2019-03-10T11:51:18.629Z,930.2
2019-03-10T11:52:19.167Z,930.18
2019-03-10T11:53:20.344Z,930.29
2019-03-10T11:54:21.411Z,930.27
2019-03-10T11:55:21.899Z,930.21
2019-03-10T11:56:22.567Z,930.2
2019-03-10T11:57:23.076Z,930.11
2019-03-10T11:58:23.759Z,930.06
2019-03-10T11:59:24.527Z,930.15
2019-03-10T12:00:25.069Z,930.06
2019-03-10T12:01:25.560Z,929.84
2019-03-10T12:02:26.328Z,929.93
2019-03-10T12:03:26.675Z,930.01
2019-03-10T12:04:27.723Z,929.91
2019-03-10T12:05:28.489Z,930.02
2019-03-10T12:06:29.822Z,929.89
2019-03-10T12:07:30.311Z,929.75
2019-03-10T12:08:30.547Z,930.34
2019-03-10T12:09:31.593Z,929.95
2019-03-10T12:10:31.828Z,930.06
2019-03-10T12:11:32.033Z,929.96
2019-03-10T12:12:32.521Z,929.82
2019-03-10T12:13:32.760Z,929.77
2019-03-10T12:14:32.968Z,929.83
2019-03-10T12:15:34.288Z,929.44
2019-03-10T12:16:34.795Z,929.73
2019-03-10T12:17:35.295Z,929.5
2019-03-10T12:18:36.332Z,929.59
2019-03-10T12:19:36.886Z,929.59
2019-03-10T12:20:37.755Z,929.59
2019-03-10T12:21:37.968Z,929.35
2019-03-10T12:22:38.779Z,929.35
2019-03-10T12:23:39.729Z,929.6
2019-03-10T12:24:40.217Z,929.49
2019-03-10T12:25:41.260Z,929.61
2019-03-10T12:26:42.307Z,929.61
2019-03-10T12:27:42.931Z,929.51
2019-03-10T12:28:43.184Z,929.63
2019-03-10T12:29:43.681Z,929.52
2019-03-10T12:30:44.168Z,929.4
2019-03-10T12:31:44.764Z,929.41